Time;durP1;ratioP1;P1;durP2;ratioP2;P2;SDS_P1;SDS_P2;PMS_P1;PMS_P2;Temp;Humidity;BMP_temperature;BMP_pressure;BME280_temperature;BME280_humidity;BME280_pressure;Samples;Min_cycle;Max_cycle;Signal;HPM_P1;HPM_P2
2021/12/22 00:01:28;;;;;;;1.40;1.30;;;;;;;-14.53;91.13;102362.59;5013547;28;20042;-68
2021/12/22 00:03:55;;;;;;;2.95;2.00;;;;;;;-14.52;90.81;102364.28;5013278;28;20511;-69
2021/12/22 00:06:25;;;;;;;3.72;1.52;;;;;;;-14.64;91.72;102370.94;5013652;28;20054;-68
2021/12/22 00:08:52;;;;;;;1.75;1.50;;;;;;;-14.51;91.42;102366.06;5013309;28;20518;-69
2021/12/22 00:11:19;;;;;;;2.08;1.40;;;;;;;-14.31;90.97;102370.81;5013235;28;20397;-69
2021/12/22 00:13:46;;;;;;;1.48;1.38;;;;;;;-14.39;91.27;102379.41;5013551;28;20057;-65
2021/12/22 00:16:13;;;;;;;1.55;1.10;;;;;;;-14.34;91.03;102373.09;5012823;28;20041;-65
2021/12/22 00:18:41;;;;;;;1.33;1.25;;;;;;;-14.40;91.18;102371.81;5013188;28;20050;-64
2021/12/22 00:21:08;;;;;;;1.90;1.75;;;;;;;-14.27;90.42;102370.28;5013087;28;20046;-65
2021/12/22 00:23:35;;;;;;;1.52;1.42;;;;;;;-14.38;90.69;102371.16;5013340;28;20053;-65
2021/12/22 00:26:02;;;;;;;1.80;1.50;;;;;;;-14.36;90.82;102363.75;5013039;28;20057;-64
2021/12/22 00:28:29;;;;;;;1.75;1.30;;;;;;;-14.20;90.07;102363.22;5012795;28;20473;-64
2021/12/22 00:30:56;;;;;;;1.63;1.52;;;;;;;-14.37;90.46;102367.03;5012975;28;20404;-64
2021/12/22 00:33:23;;;;;;;3.70;1.77;;;;;;;-14.39;90.72;102366.91;5013069;28;20073;-63
2021/12/22 00:35:51;;;;;;;1.67;1.35;;;;;;;-14.44;90.69;102372.34;5013068;28;20408;-64
2021/12/22 00:38:20;;;;;;;1.40;1.30;;;;;;;-14.48;91.61;102371.25;5012922;28;20056;-64
2021/12/22 00:40:48;;;;;;;1.50;1.40;;;;;;;-14.40;90.64;102376.81;5012620;28;20056;-64
2021/12/22 00:43:17;;;;;;;1.70;1.60;;;;;;;-14.30;90.46;102370.06;5011750;28;20407;-65
2021/12/22 00:45:44;;;;;;;1.65;1.50;;;;;;;-14.47;90.71;102365.50;5012856;28;20049;-64
2021/12/22 00:48:12;;;;;;;;;;;;;;;-14.44;91.15;102370.69;5013249;28;20049;-65
2021/12/22 00:50:40;;;;;;;1.58;1.48;;;;;;;-14.52;91.70;102371.78;5012739;28;19944;-69
2021/12/22 00:53:08;;;;;;;1.60;1.50;;;;;;;-14.56;91.68;102368.25;5012497;28;20041;-66
2021/12/22 00:55:36;;;;;;;5.25;1.40;;;;;;;-14.51;92.08;102364.41;5012638;28;20049;-65
2021/12/22 00:58:04;;;;;;;1.58;1.48;;;;;;;-14.50;92.14;102367.78;5012541;28;20041;-66
2021/12/22 01:00:31;;;;;;;1.27;1.17;;;;;;;-14.44;91.30;102364.84;5012492;28;20049;-64
2021/12/22 01:02:57;;;;;;;1.50;1.40;;;;;;;-14.51;91.27;102361.91;5012625;28;20050;-64
2021/12/22 01:05:25;;;;;;;2.22;1.70;;;;;;;-14.44;91.85;102365.69;5012609;28;20046;-68
2021/12/22 01:07:53;;;;;;;1.52;1.42;;;;;;;-14.56;92.06;102368.25;5012395;28;20042;-69
2021/12/22 01:10:24;;;;;;;1.60;1.50;;;;;;;-14.55;92.20;102366.59;5012295;28;20052;-68
2021/12/22 01:12:53;;;;;;;1.30;1.20;;;;;;;-14.37;91.69;102362.88;5012377;28;20049;-68
2021/12/22 01:15:20;;;;;;;4.13;1.70;;;;;;;-14.46;91.35;102367.25;5012266;28;20057;-68
2021/12/22 01:17:50;;;;;;;1.30;1.30;;;;;;;-14.32;91.82;102368.22;5012353;28;20049;-68
2021/12/22 01:20:23;;;;;;;2.08;1.50;;;;;;;-14.37;90.95;102367.91;5012374;28;20050;-69
2021/12/22 01:22:51;;;;;;;1.58;1.48;;;;;;;-14.43;91.26;102364.97;5012508;28;20070;-65
2021/12/22 01:25:22;;;;;;;3.20;1.95;;;;;;;-14.52;91.83;102359.28;5012556;28;20054;-69
2021/12/22 01:27:51;;;;;;;1.73;1.40;;;;;;;-14.50;91.89;102360.28;5012117;28;20057;-68
2021/12/22 01:30:21;;;;;;;1.65;1.50;;;;;;;-14.49;92.71;102364.50;5012222;28;20050;-69
2021/12/22 01:32:50;;;;;;;1.92;1.75;;;;;;;-14.40;91.79;102359.31;5012105;28;20141;-69
2021/12/22 01:35:21;;;;;;;2.30;1.38;;;;;;;-14.50;92.20;102358.63;5012282;28;20050;-69
2021/12/22 01:37:49;;;;;;;1.70;1.60;;;;;;;-14.52;92.71;102359.28;5012142;28;20049;-67
2021/12/22 01:40:17;;;;;;;2.55;1.77;;;;;;;-14.52;92.29;102364.28;5012287;28;20053;-67
2021/12/22 01:42:44;;;;;;;1.88;1.45;;;;;;;-14.40;91.92;102355.19;5012243;28;20408;-68
2021/12/22 01:45:29;;;;;;;3.17;1.70;;;;;;;-14.22;91.54;102349.75;5012023;28;20060;-68
2021/12/22 01:50:45;;;;;;;1.60;1.50;;;;;;;-14.34;90.57;102358.09;5012199;28;20611;-68
2021/12/22 01:53:31;;;;;;;1.40;1.30;;;;;;;-14.50;90.03;102350.28;5011978;28;20385;-69
2021/12/22 01:56:07;;;;;;;1.63;1.42;;;;;;;-14.78;89.72;102353.31;5015222;28;20451;-68
2021/12/22 01:58:41;;;;;;;1.77;1.50;;;;;;;-15.00;91.36;102345.88;5015858;28;20484;-67
2021/12/22 02:01:10;;;;;;;1.40;1.30;;;;;;;-15.21;91.25;102342.63;5015886;28;20057;-69
2021/12/22 02:03:38;;;;;;;1.33;1.23;;;;;;;-15.30;90.17;102348.59;5015794;28;20049;-69
2021/12/22 02:06:05;;;;;;;1.60;1.48;;;;;;;-15.06;91.51;102347.03;5015594;28;20415;-68
2021/12/22 02:08:32;;;;;;;1.33;1.23;;;;;;;-14.80;90.51;102347.31;5015668;28;20088;-69
2021/12/22 02:11:00;;;;;;;1.73;1.63;;;;;;;-14.99;89.40;102347.63;5015628;28;20530;-67
2021/12/22 02:13:31;;;;;;;1.50;1.40;;;;;;;-15.31;89.57;102347.69;5015522;28;20050;-69
2021/12/22 02:16:07;;;;;;;1.50;1.40;;;;;;;-15.61;90.13;102342.16;5015615;28;20133;-69
2021/12/22 02:18:37;;;;;;;1.60;1.50;;;;;;;-15.68;90.71;102349.94;5015454;28;20042;-69
2021/12/22 02:21:06;;;;;;;1.70;1.60;;;;;;;-15.81;89.89;102345.66;5015403;28;20050;-67
2021/12/22 02:23:34;;;;;;;1.40;1.30;;;;;;;-15.87;90.02;102350.19;5015842;28;20532;-69
2021/12/22 02:26:08;;;;;;;1.70;1.42;;;;;;;-16.04;90.38;102346.38;5015300;28;20485;-68
2021/12/22 02:28:37;;;;;;;3.47;1.73;;;;;;;-16.15;91.15;102347.16;5015319;28;20100;-67
2021/12/22 02:31:05;;;;;;;3.33;1.90;;;;;;;-16.26;91.69;102345.44;5015652;28;20046;-64
2021/12/22 02:33:36;;;;;;;1.50;1.40;;;;;;;-16.20;92.07;102340.09;5016150;28;20045;-68
2021/12/22 02:36:19;;;;;;;1.50;1.40;;;;;;;-16.15;90.97;102334.69;5015447;28;20053;-68
2021/12/22 02:38:50;;;;;;;1.30;1.20;;;;;;;-16.30;90.38;102336.84;5015918;28;20096;-64
2021/12/22 02:41:19;;;;;;;1.40;1.30;;;;;;;-16.15;91.10;102336.34;5016178;28;20503;-63
2021/12/22 02:43:48;;;;;;;1.73;1.58;;;;;;;-16.25;90.49;102342.22;5016581;28;20049;-65
2021/12/22 02:46:16;;;;;;;1.13;1.13;;;;;;;-16.40;91.40;102334.41;5016091;28;20144;-65
2021/12/22 02:48:45;;;;;;;2.08;1.65;;;;;;;-16.39;91.62;102336.13;5015684;28;20061;-64
2021/12/22 02:51:14;;;;;;;1.50;1.40;;;;;;;-16.55;91.09;102334.03;5014950;28;20046;-64
2021/12/22 02:53:45;;;;;;;1.30;1.20;;;;;;;-16.51;92.83;102332.69;5014805;28;20048;-65
2021/12/22 02:56:28;;;;;;;1.40;1.30;;;;;;;-16.43;92.19;102329.19;5014780;28;20073;-64
2021/12/22 02:59:04;;;;;;;1.42;1.40;;;;;;;-16.48;91.89;102331.28;5014440;28;20052;-65
2021/12/22 03:02:05;;;;;;;1.30;1.30;;;;;;;-16.48;91.37;102336.28;5014536;28;20050;-65
2021/12/22 03:04:34;;;;;;;1.42;1.33;;;;;;;-16.49;93.30;102324.59;5014017;28;20151;-64
2021/12/22 03:07:08;;;;;;;1.42;1.33;;;;;;;-16.49;92.12;102326.19;5013482;28;20050;-65
2021/12/22 03:09:37;;;;;;;1.65;1.30;;;;;;;-16.43;94.52;102324.19;5014358;28;20054;-67
2021/12/22 03:12:07;;;;;;;1.00;1.00;;;;;;;-16.46;92.25;102323.94;5014326;28;20050;-69
2021/12/22 03:14:33;;;;;;;1.40;1.30;;;;;;;-16.58;92.14;102318.84;5014231;28;20400;-68
2021/12/22 03:17:00;;;;;;;1.45;1.35;;;;;;;-16.62;92.21;102316.00;5014247;28;20499;-70
2021/12/22 03:19:30;;;;;;;1.67;1.25;;;;;;;-16.59;93.16;102316.22;5014168;28;20401;-70
2021/12/22 03:22:00;;;;;;;1.80;1.70;;;;;;;-16.46;93.56;102316.47;5013861;28;20143;-70
2021/12/22 03:24:29;;;;;;;1.25;1.25;;;;;;;-16.48;93.43;102310.50;5014581;28;20049;-69
2021/12/22 03:26:59;;;;;;;1.20;1.20;;;;;;;-16.52;92.95;102315.97;5014061;28;20050;-69
2021/12/22 03:29:27;;;;;;;1.20;1.10;;;;;;;-16.61;93.31;102310.28;5013972;28;20540;-65
2021/12/22 03:31:54;;;;;;;2.20;1.33;;;;;;;-16.66;92.61;102306.56;5013943;28;20050;-70
2021/12/22 03:34:21;;;;;;;;;;;;;;;-16.64;92.98;102310.91;5014058;28;20053;-67
2021/12/22 03:36:48;;;;;;;1.00;1.00;;;;;;;-16.68;92.55;102309.78;5013970;28;19929;-69
2021/12/22 03:39:16;;;;;;;1.50;1.40;;;;;;;-16.71;92.47;102313.66;5013884;28;20527;-67
2021/12/22 03:41:46;;;;;;;1.20;1.20;;;;;;;-16.65;92.34;102311.66;5014124;28;20084;-69
2021/12/22 03:44:13;;;;;;;1.63;1.20;;;;;;;-16.68;92.10;102312.25;5013818;28;20404;-68
2021/12/22 03:46:41;;;;;;;1.27;1.27;;;;;;;-16.79;92.52;102309.72;5013691;28;20052;-65
2021/12/22 03:49:11;;;;;;;2.97;1.27;;;;;;;-16.81;93.08;102307.09;5013760;28;20049;-68
2021/12/22 03:51:38;;;;;;;1.75;1.65;;;;;;;-16.80;92.93;102300.50;5013855;28;20042;-67
2021/12/22 03:54:06;;;;;;;1.15;1.15;;;;;;;-16.91;91.35;102303.00;5013345;28;20054;-69
2021/12/22 03:56:33;;;;;;;2.20;1.60;;;;;;;-16.87;92.33;102305.72;5013478;28;20486;-69
2021/12/22 03:59:02;;;;;;;1.55;1.45;;;;;;;-16.95;92.46;102300.13;5013530;28;20046;-68
2021/12/22 04:01:29;;;;;;;1.90;1.73;;;;;;;-16.98;91.89;102293.28;5013435;28;20060;-69
2021/12/22 04:04:00;;;;;;;1.77;1.55;;;;;;;-16.98;92.65;102300.75;5013222;28;20046;-69
2021/12/22 04:06:27;;;;;;;1.58;1.48;;;;;;;-17.06;92.80;102291.78;5013310;28;20404;-69
2021/12/22 04:08:54;;;;;;;2.17;1.98;;;;;;;-17.12;91.66;102289.69;5013421;28;20046;-69
2021/12/22 04:11:21;;;;;;;1.88;1.65;;;;;;;-17.16;91.68;102292.69;5013414;28;20064;-69
2021/12/22 04:13:48;;;;;;;1.13;1.13;;;;;;;-17.21;91.69;102293.03;5013242;28;20049;-69
2021/12/22 04:16:17;;;;;;;1.38;1.35;;;;;;;-17.27;91.45;102288.44;5013485;28;20100;-68
2021/12/22 04:18:44;;;;;;;5.18;1.50;;;;;;;-17.40;91.12;102284.09;5013084;28;20062;-68
2021/12/22 04:21:10;;;;;;;1.50;1.40;;;;;;;-17.42;91.18;102283.06;5013301;28;20056;-67
2021/12/22 04:23:37;;;;;;;1.40;1.30;;;;;;;-17.42;91.99;102280.59;5013487;28;20500;-69
2021/12/22 04:26:04;;;;;;;2.53;1.80;;;;;;;-17.42;92.14;102287.19;5012918;28;20484;-67
2021/12/22 04:28:31;;;;;;;1.20;1.20;;;;;;;-17.46;91.07;102278.63;5012789;28;20056;-69
2021/12/22 04:30:58;;;;;;;1.50;1.40;;;;;;;-17.54;90.67;102281.19;5013117;28;20046;-68
2021/12/22 04:33:26;;;;;;;1.10;1.10;;;;;;;-17.55;90.99;102282.81;5012563;28;20519;-68
2021/12/22 04:35:55;;;;;;;1.50;1.42;;;;;;;-17.53;89.24;102280.47;5012886;28;20405;-69
2021/12/22 04:38:23;;;;;;;1.40;1.30;;;;;;;-17.68;90.06;102283.41;5012844;28;20057;-64
2021/12/22 04:40:50;;;;;;;1.77;1.35;;;;;;;-17.38;89.55;102282.59;5013001;28;20061;-68
2021/12/22 04:43:17;;;;;;;1.45;1.35;;;;;;;-17.44;89.00;102276.25;5012838;28;20394;-69
2021/12/22 04:45:43;;;;;;;;;;;;;;;-17.30;88.44;102279.88;5013263;28;20053;-69
2021/12/22 04:48:12;;;;;;;1.38;1.27;;;;;;;-17.21;87.88;102276.53;5012651;28;20295;-68
2021/12/22 04:50:40;;;;;;;;;;;;;;;-17.50;88.42;102281.59;5013060;28;20180;-68
2021/12/22 04:53:11;;;;;;;1.60;1.50;;;;;;;-17.65;90.18;102278.69;5012539;28;19929;-69
2021/12/22 04:55:38;;;;;;;1.10;1.10;;;;;;;-17.78;91.22;102289.25;5012818;28;20046;-69
2021/12/22 04:58:06;;;;;;;1.67;1.58;;;;;;;-17.73;91.30;102278.81;5012399;28;20038;-68
2021/12/22 05:00:35;;;;;;;1.70;1.60;;;;;;;-17.84;90.82;102276.34;5012704;28;20049;-64
2021/12/22 05:03:02;;;;;;;4.60;1.30;;;;;;;-17.91;91.57;102285.66;5012475;28;20140;-66
2021/12/22 05:05:29;;;;;;;1.55;1.45;;;;;;;-17.95;91.00;102281.16;5012302;28;20054;-69
2021/12/22 05:07:58;;;;;;;1.10;1.10;;;;;;;-17.87;90.68;102281.06;5012482;28;20057;-64
2021/12/22 05:10:26;;;;;;;1.38;1.38;;;;;;;-17.72;89.45;102276.47;5012629;28;20053;-64
2021/12/22 05:12:54;;;;;;;1.52;1.42;;;;;;;-17.80;87.67;102275.88;5012362;28;20046;-66
2021/12/22 05:15:23;;;;;;;1.98;1.70;;;;;;;-18.09;89.02;102273.41;5012428;28;20053;-66
2021/12/22 05:20:35;;;;;;;2.78;1.58;;;;;;;-18.23;89.53;102282.19;5012213;28;20512;-64
2021/12/22 05:23:04;;;;;;;1.83;1.70;;;;;;;-18.35;90.92;102283.63;5012513;28;20050;-64
2021/12/22 05:25:31;;;;;;;2.35;2.15;;;;;;;-18.49;90.61;102279.09;5012054;28;20046;-64
2021/12/22 05:27:57;;;;;;;1.70;1.60;;;;;;;-18.52;89.98;102283.78;5012337;28;20129;-64
2021/12/22 05:30:24;;;;;;;1.50;1.40;;;;;;;-18.48;90.13;102280.81;5014554;28;20053;-65
2021/12/22 05:32:54;;;;;;;1.30;1.30;;;;;;;-18.54;90.27;102275.34;5016099;28;20100;-67
2021/12/22 05:35:21;;;;;;;1.73;1.63;;;;;;;-18.66;91.02;102278.50;5016218;28;20066;-66
2021/12/22 05:37:47;;;;;;;;;;;;;;;-18.15;88.59;102275.38;5016514;28;20080;-65
2021/12/22 05:40:16;;;;;;;1.60;1.50;;;;;;;-18.20;87.83;102270.78;5016211;28;20390;-68
2021/12/22 05:42:43;;;;;;;5.30;1.35;;;;;;;-18.37;88.80;102274.28;5016062;28;20061;-70
2021/12/22 05:45:10;;;;;;;2.85;2.15;;;;;;;-18.51;88.12;102271.50;5015699;28;20058;-66
2021/12/22 05:47:37;;;;;;;1.33;1.33;;;;;;;-18.51;88.75;102268.16;5016249;28;20050;-67
2021/12/22 05:50:07;;;;;;;1.77;1.67;;;;;;;-18.23;87.48;102271.38;5016041;28;20404;-66
2021/12/22 05:52:34;;;;;;;1.70;1.58;;;;;;;-18.50;87.96;102268.28;5016080;28;20052;-70
2021/12/22 05:55:00;;;;;;;;;;;;;;;-18.70;88.36;102260.72;5016291;28;20056;-62
2021/12/22 05:57:29;;;;;;;1.25;1.23;;;;;;;-18.74;88.60;102261.19;5015818;28;19925;-69
2021/12/22 05:59:56;;;;;;;1.63;1.52;;;;;;;-18.91;89.50;102260.63;5015991;28;20046;-66
2021/12/22 06:02:23;;;;;;;1.77;1.65;;;;;;;-18.89;90.68;102261.63;5016007;28;20065;-65
2021/12/22 06:04:49;;;;;;;2.70;2.45;;;;;;;-18.95;89.38;102262.72;5015485;28;20053;-65
2021/12/22 06:07:16;;;;;;;1.38;1.35;;;;;;;-19.00;88.94;102264.81;5015672;28;20059;-63
2021/12/22 06:09:43;;;;;;;1.50;1.40;;;;;;;-19.04;90.06;102265.25;5015648;28;20050;-65
2021/12/22 06:12:10;;;;;;;1.70;1.60;;;;;;;-18.96;91.15;102259.34;5015505;28;20049;-63
2021/12/22 06:14:39;;;;;;;1.77;1.52;;;;;;;-18.96;89.69;102253.53;5015356;28;20072;-63
2021/12/22 06:17:06;;;;;;;1.40;1.30;;;;;;;-18.98;89.08;102253.41;5015598;28;20061;-63
2021/12/22 06:19:32;;;;;;;1.23;1.23;;;;;;;-18.83;88.90;102258.81;5015472;28;20046;-62
2021/12/22 06:22:00;;;;;;;3.70;1.83;;;;;;;-18.57;86.38;102252.72;5015205;28;20484;-66
2021/12/22 06:24:29;;;;;;;1.40;1.30;;;;;;;-18.92;86.62;102245.63;5016090;28;20137;-62
2021/12/22 06:26:56;;;;;;;2.45;1.67;;;;;;;-19.03;88.52;102241.31;5015336;28;20369;-62
2021/12/22 06:29:23;;;;;;;1.80;1.70;;;;;;;-19.12;87.73;102239.78;5015529;28;20045;-67
2021/12/22 06:31:52;;;;;;;1.65;1.55;;;;;;;-19.17;88.11;102250.03;5015453;28;20050;-62
2021/12/22 06:34:19;;;;;;;4.07;1.77;;;;;;;-19.12;87.61;102251.31;5015196;28;20050;-64
2021/12/22 06:36:46;;;;;;;;;;;;;;;-18.96;86.94;102241.13;5015894;28;20050;-64
2021/12/22 06:39:15;;;;;;;2.03;1.88;;;;;;;-19.13;88.06;102242.13;5014932;28;20398;-68
2021/12/22 06:41:41;;;;;;;2.85;2.05;;;;;;;-19.24;87.05;102242.78;5013711;28;20493;-62
2021/12/22 06:44:08;;;;;;;1.85;1.75;;;;;;;-19.37;87.90;102240.81;5015100;28;20046;-64
2021/12/22 06:46:35;;;;;;;2.00;1.85;;;;;;;-19.24;87.51;102236.22;5014856;28;20065;-66
2021/12/22 06:49:04;;;;;;;1.70;1.60;;;;;;;-19.38;87.50;102231.66;5014994;28;20053;-67
2021/12/22 06:51:30;;;;;;;1.75;1.65;;;;;;;-19.44;88.54;102239.44;5014739;28;20049;-63
2021/12/22 06:53:57;;;;;;;2.13;1.92;;;;;;;-19.32;87.70;102240.50;5014831;28;20465;-64
2021/12/22 06:56:24;;;;;;;2.30;2.10;;;;;;;-19.44;88.15;102229.50;5014696;28;20484;-62
2021/12/22 06:58:51;;;;;;;2.58;2.38;;;;;;;-19.55;89.48;102240.91;5014934;28;20401;-65
2021/12/22 07:01:20;;;;;;;1.80;1.70;;;;;;;-19.50;88.32;102233.91;5014929;28;20054;-65
2021/12/22 07:03:47;;;;;;;1.42;1.33;;;;;;;-19.42;89.23;102235.44;5014778;28;20049;-68
2021/12/22 07:06:15;;;;;;;1.73;1.63;;;;;;;-19.46;88.03;102237.53;5014444;28;20058;-66
2021/12/22 07:08:42;;;;;;;2.05;1.92;;;;;;;-19.10;87.07;102230.00;5014267;28;20050;-68
2021/12/22 07:11:10;;;;;;;1.10;1.10;;;;;;;-18.84;86.24;102226.44;5014411;28;20046;-68
2021/12/22 07:13:37;;;;;;;1.50;1.48;;;;;;;-18.87;85.99;102216.25;5014414;28;20045;-68
2021/12/22 07:16:04;;;;;;;1.63;1.52;;;;;;;-18.93;85.01;102212.50;5014445;28;20045;-68
2021/12/22 07:18:32;;;;;;;1.77;1.67;;;;;;;-18.98;85.12;102217.75;5014448;28;20053;-65
2021/12/22 07:20:59;;;;;;;1.40;1.35;;;;;;;-19.27;85.12;102216.09;5014577;28;20054;-68
2021/12/22 07:23:27;;;;;;;1.63;1.52;;;;;;;-19.56;87.82;102214.41;5014612;28;20057;-68
2021/12/22 07:25:54;;;;;;;1.77;1.67;;;;;;;-19.59;87.17;102208.31;5014324;28;20049;-67
2021/12/22 07:28:21;;;;;;;1.85;1.75;;;;;;;-19.62;86.97;102206.44;5014122;28;20049;-67
2021/12/22 07:30:48;;;;;;;;;;;;;;;-19.67;87.94;102206.78;5014354;28;20054;-65
2021/12/22 07:33:15;;;;;;;1.00;1.00;;;;;;;-19.47;87.53;102203.53;5014162;28;19931;-69
2021/12/22 07:35:43;;;;;;;;;;;;;;;-19.24;86.10;102203.09;5014477;28;20068;-62
2021/12/22 07:38:27;;;;;;;2.08;1.98;;;;;;;-19.26;85.04;102199.59;5013895;28;19921;-67
2021/12/22 07:40:57;;;;;;;1.95;1.52;;;;;;;-19.62;86.00;102190.66;5013984;28;20056;-63
2021/12/22 07:43:25;;;;;;;1.88;1.77;;;;;;;-19.66;86.70;102188.69;5014024;28;20053;-68
2021/12/22 07:45:52;;;;;;;2.03;1.90;;;;;;;-19.71;86.61;102185.81;5013973;28;20050;-65
2021/12/22 07:48:19;;;;;;;1.92;1.83;;;;;;;-19.65;86.75;102181.38;5013966;28;20057;-63
2021/12/22 07:50:47;;;;;;;1.48;1.45;;;;;;;-19.67;86.80;102179.53;5013861;28;20136;-63
2021/12/22 07:53:14;;;;;;;1.45;1.42;;;;;;;-19.87;87.26;102180.22;5013311;28;20050;-64
2021/12/22 07:55:41;;;;;;;1.92;1.83;;;;;;;-19.92;88.22;102187.22;5013400;28;20053;-64
2021/12/22 07:58:09;;;;;;;1.60;1.50;;;;;;;-19.86;87.73;102192.72;5013744;28;20054;-64
2021/12/22 08:00:37;;;;;;;1.25;1.20;;;;;;;-19.38;85.51;102191.97;5013500;28;20046;-64
2021/12/22 08:03:04;;;;;;;2.45;1.75;;;;;;;-19.14;84.25;102191.63;5013455;28;20046;-63
2021/12/22 08:05:31;;;;;;;1.30;1.30;;;;;;;-19.34;83.53;102186.53;5013586;28;20050;-64
2021/12/22 08:07:59;;;;;;;1.70;1.60;;;;;;;-19.39;83.47;102190.22;5013324;28;20050;-66
2021/12/22 08:10:26;;;;;;;1.48;1.48;;;;;;;-19.65;84.37;102183.84;5013657;28;20141;-67
2021/12/22 08:12:53;;;;;;;;;;;;;;;-19.59;84.61;102179.44;5013716;28;20425;-68
2021/12/22 08:15:21;;;;;;;;;;;;;;;-19.84;86.46;102176.41;5013831;28;19921;-67
2021/12/22 08:17:48;;;;;;;1.20;1.20;;;;;;;-19.95;87.47;102174.56;5013240;28;19921;-65
2021/12/22 08:20:15;;;;;;;5.43;1.67;;;;;;;-19.82;86.11;102171.59;5013100;28;20481;-63
2021/12/22 08:22:42;;;;;;;1.75;1.55;;;;;;;-20.16;87.52;102167.66;5013018;28;20504;-64
2021/12/22 08:25:09;;;;;;;1.75;1.65;;;;;;;-20.23;88.24;102172.06;5013536;28;20510;-64
2021/12/22 08:27:37;;;;;;;1.48;1.38;;;;;;;-20.16;86.55;102167.66;5013049;28;20057;-66
2021/12/22 08:30:05;;;;;;;1.30;1.30;;;;;;;-19.79;86.55;102154.50;5013117;28;20046;-65
2021/12/22 08:32:33;;;;;;;1.10;1.10;;;;;;;-19.66;84.97;102161.44;5013145;28;20400;-63
2021/12/22 08:35:03;;;;;;;1.70;1.60;;;;;;;-19.70;84.57;102159.41;5012987;28;20054;-63
2021/12/22 08:40:16;;;;;;;2.28;2.17;;;;;;;-19.90;85.02;102152.69;5012792;28;20524;-63
2021/12/22 08:42:44;;;;;;;1.85;1.75;;;;;;;-19.73;85.24;102159.13;5013058;28;20195;-64
2021/12/22 08:45:12;;;;;;;1.98;1.63;;;;;;;-19.98;85.05;102152.00;5012596;28;20045;-64
2021/12/22 08:47:40;;;;;;;1.75;1.65;;;;;;;-20.01;85.14;102150.13;5012535;28;20488;-63
2021/12/22 08:50:10;;;;;;;1.60;1.45;;;;;;;-20.06;85.10;102150.41;5012636;28;20061;-63
2021/12/22 08:52:37;;;;;;;1.83;1.58;;;;;;;-19.73;84.67;102136.81;5012396;28;20053;-63
2021/12/22 08:55:05;;;;;;;1.65;1.55;;;;;;;-19.58;84.09;102126.63;5012316;28;20061;-63
2021/12/22 08:57:32;;;;;;;1.42;1.38;;;;;;;-19.56;83.56;102129.25;5012179;28;20050;-63
2021/12/22 08:59:58;;;;;;;3.55;1.95;;;;;;;-19.51;83.77;102123.09;5012229;28;20404;-64
2021/12/22 09:02:25;;;;;;;1.30;1.30;;;;;;;-19.54;83.74;102117.88;5012508;28;20046;-63
2021/12/22 09:04:53;;;;;;;;;;;;;;;-19.53;83.54;102113.75;5011674;28;20042;-63
2021/12/22 09:07:20;;;;;;;1.30;1.30;;;;;;;-19.76;83.83;102110.16;5011962;28;19929;-63
2021/12/22 09:09:47;;;;;;;1.83;1.73;;;;;;;-19.87;84.40;102113.31;5012064;28;20054;-63
2021/12/22 09:12:14;;;;;;;1.83;1.73;;;;;;;-20.01;84.74;102110.50;5012391;28;20503;-64
2021/12/22 09:14:41;;;;;;;2.08;1.98;;;;;;;-19.87;85.42;102118.28;5012406;28;20046;-65
2021/12/22 09:17:08;;;;;;;;;;;;;;;-20.03;85.71;102113.56;5012791;28;20412;-65
2021/12/22 09:19:35;;;;;;;;;;;;;;;-19.74;84.67;102113.66;5012880;28;20283;-63
2021/12/22 09:22:03;;;;;;;;;;;;;;;-19.93;85.37;102106.22;5012651;28;19921;-64
2021/12/22 09:24:30;;;;;;;1.65;1.55;;;;;;;-19.82;85.41;102107.16;5012743;28;19926;-63
2021/12/22 09:26:57;;;;;;;1.50;1.45;;;;;;;-19.94;85.33;102097.03;5012268;28;20049;-65
2021/12/22 09:29:26;;;;;;;;;;;;;;;-19.99;85.45;102105.66;5012815;28;20060;-64
2021/12/22 09:31:53;;;;;;;1.75;1.65;;;;;;;-19.94;86.15;102106.06;5012489;28;19921;-63
2021/12/22 09:34:19;;;;;;;;;;;;;;;-19.68;85.05;102108.38;5012585;28;20049;-63
2021/12/22 09:36:46;;;;;;;;;;;;;;;-19.60;83.89;102102.44;5012623;28;20269;-63
2021/12/22 09:39:14;;;;;;;;;;;;;;;-19.35;83.11;102103.81;5012804;28;19922;-63
2021/12/22 09:41:41;;;;;;;1.13;1.13;;;;;;;-19.48;83.30;102107.59;5012345;28;19944;-63
2021/12/22 09:44:08;;;;;;;1.95;1.85;;;;;;;-19.75;84.29;102097.06;5012256;28;20046;-63
2021/12/22 09:46:38;;;;;;;1.80;1.70;;;;;;;-19.59;84.49;102097.63;5012105;28;20061;-63
2021/12/22 09:49:20;;;;;;;1.60;1.50;;;;;;;-19.50;83.56;102091.72;5012086;28;20050;-63
2021/12/22 09:54:33;;;;;;;1.25;1.25;;;;;;;-19.59;83.03;102091.78;5012029;28;20064;-68
2021/12/22 09:57:00;;;;;;;3.40;3.10;;;;;;;-19.62;83.65;102084.06;5012101;28;20046;-65
2021/12/22 09:59:27;;;;;;;1.27;1.27;;;;;;;-19.43;82.66;102079.97;5011921;28;20467;-64
2021/12/22 10:01:54;;;;;;;2.80;2.65;;;;;;;-19.49;82.45;102073.59;5012131;28;20050;-63
2021/12/22 10:04:21;;;;;;;2.08;1.95;;;;;;;-19.66;82.73;102065.59;5012286;28;20049;-63
2021/12/22 10:06:48;;;;;;;1.95;1.85;;;;;;;-19.70;83.00;102058.69;5012229;28;20049;-63
2021/12/22 10:09:15;;;;;;;1.00;1.00;;;;;;;-19.62;83.29;102064.25;5012504;28;20048;-64
2021/12/22 10:11:47;;;;;;;1.75;1.65;;;;;;;-19.66;83.53;102057.31;5012616;28;20576;-64
2021/12/22 10:14:18;;;;;;;5.43;2.55;;;;;;;-19.92;86.05;102058.41;5013307;28;20052;-66
2021/12/22 10:16:47;;;;;;;1.45;1.42;;;;;;;-19.88;85.25;102052.09;5017455;28;20054;-65
2021/12/22 10:19:14;;;;;;;1.60;1.50;;;;;;;-19.70;84.34;102048.75;5018597;28;20049;-66
2021/12/22 10:21:52;;;;;;;2.05;1.95;;;;;;;-19.60;83.77;102041.31;5018272;28;20088;-66
2021/12/22 10:24:22;;;;;;;5.13;3.08;;;;;;;-19.74;83.55;102034.34;5016554;28;20054;-68
2021/12/22 10:27:03;;;;;;;3.42;2.92;;;;;;;-19.58;84.06;102036.50;5015199;28;20112;-64
2021/12/22 10:29:32;;;;;;;2.47;2.28;;;;;;;-19.43;83.05;102020.47;5015311;28;20050;-68
2021/12/22 10:32:08;;;;;;;2.15;2.05;;;;;;;-19.26;82.95;102006.16;5015568;28;20057;-64
2021/12/22 10:34:35;;;;;;;1.70;1.60;;;;;;;-19.27;82.58;102007.75;5014911;28;20488;-63
2021/12/22 10:37:01;;;;;;;;;;;;;;;-19.40;83.39;101992.59;5015411;28;20050;-65
2021/12/22 10:39:31;;;;;;;2.65;2.45;;;;;;;-19.60;83.80;101994.22;5015161;28;19921;-64
2021/12/22 10:42:05;;;;;;;2.40;2.22;;;;;;;-19.33;84.18;101985.78;5014762;28;20053;-66
2021/12/22 10:44:37;;;;;;;3.65;3.28;;;;;;;-19.02;83.26;101983.41;5014869;28;20041;-63
2021/12/22 10:47:18;;;;;;;2.35;1.50;;;;;;;-19.02;83.22;101983.41;5014816;28;20053;-63
2021/12/22 10:49:57;;;;;;;2.85;2.65;;;;;;;-18.95;83.53;101974.88;5014752;28;20089;-62
2021/12/22 10:52:26;;;;;;;4.70;3.72;;;;;;;-19.17;85.23;101968.09;5014743;28;20057;-63
2021/12/22 10:55:07;;;;;;;4.45;3.03;;;;;;;-18.75;84.29;101964.97;5014846;28;20054;-68
2021/12/22 10:57:37;;;;;;;2.40;2.25;;;;;;;-18.70;84.79;101957.84;5014738;28;20396;-63
2021/12/22 11:00:16;;;;;;;1.83;1.70;;;;;;;-18.60;84.59;101952.03;5014932;28;20365;-69
2021/12/22 11:02:49;;;;;;;2.80;2.22;;;;;;;-18.49;84.21;101952.16;5014898;28;20105;-64
2021/12/22 11:05:26;;;;;;;3.42;3.17;;;;;;;-18.62;85.21;101943.56;5014424;28;20053;-64
2021/12/22 11:07:53;;;;;;;4.32;3.38;;;;;;;-18.30;84.56;101942.06;5014430;28;20146;-69
2021/12/22 11:10:24;;;;;;;;;;;;;;;-18.35;84.63;101927.56;5014749;28;20042;-62
2021/12/22 11:13:01;;;;;;;4.72;2.85;;;;;;;-18.14;84.44;101918.44;5014599;28;19968;-63
2021/12/22 11:15:28;;;;;;;1.77;1.67;;;;;;;-18.11;84.53;101912.09;5014396;28;20064;-64
2021/12/22 11:17:55;;;;;;;4.07;2.40;;;;;;;-18.02;86.03;101909.47;5014304;28;20069;-64
2021/12/22 11:20:22;;;;;;;;;;;;;;;-17.88;85.21;101903.94;5014790;28;20046;-62
2021/12/22 11:22:54;;;;;;;5.20;4.80;;;;;;;-17.78;86.05;101903.88;5013865;28;20360;-64
2021/12/22 11:25:22;;;;;;;3.40;2.28;;;;;;;-17.73;85.59;101895.91;5014676;28;20053;-65
2021/12/22 11:27:52;;;;;;;6.97;4.68;;;;;;;-17.68;86.14;101894.66;5013487;28;20045;-63
2021/12/22 11:30:21;;;;;;;7.93;4.45;;;;;;;-17.62;86.93;101881.06;5013936;28;20061;-66
2021/12/22 11:32:48;;;;;;;2.08;1.98;;;;;;;-17.50;87.07;101878.63;5013943;28;20050;-65
2021/12/22 11:35:16;;;;;;;2.72;2.53;;;;;;;-17.38;86.37;101872.09;5013813;28;20046;-65
2021/12/22 11:37:44;;;;;;;6.55;4.43;;;;;;;-17.37;86.31;101867.97;5014207;28;20104;-62
2021/12/22 11:40:13;;;;;;;2.45;2.35;;;;;;;-17.39;87.01;101859.53;5013933;28;20046;-64